Palermo/Punta Raisi Airport

Airport
ICAO code: 
LICJ
IATA Code: 
PMO
Summary
ICAO Region: 
EUR
Territory: 
Location: 
Cinisi, Sicily
Serving: 
Palermo
Elevation: 
65 ft
Coordinates: 
Aerial View: 
38° 10' 55.755" N, 13° 6' 11.758" E
Metar
Observation
LICJ 170420Z 14005KT 9999 BKN030 10/07 Q1027
Station
Palermo / Punta Raisi
Date/Time
2022-01-17 04:20:00
Wind direction
140°
Wind speed
05 kts
Lowest cloud amount
broken clouds
Temperature
10°C
Dew point
7°C
Humidity
81%
QNH
1027 hPa
Weather condition
n/a

Palermo Airport, also known as Falcone-Borsellino Airport and Punta Raisi Airport is located at Punta Raisi, 19 nm west northwest of Palermo, the capital city of the Italian island of Sicily.

Climatology

Dry-summer subtropical ”Mediterranean" climate (Köppen climate classification Csa) - characterized by hot, dry summers and mild winters. During the summer, subtropical high pressure cells dominate, making rainfall unlikely except for the occasional thunderstorm. In the winter, periodic storms bring rain (snow at higher elevations).

Runways

Designator Length Width Surface Rops
2/20 2074 45 ASP Yes/Yes
7/25 3326 60 ASP Yes/Yes
Airport map: 
Aerial View: 

SKYbrary Partners:

Safety knowledge contributed by: